createdAt,value
2023-03-06T00:01:16.007Z,67.29
2023-03-06T00:03:42.435Z,67.40
2023-03-06T00:06:08.938Z,67.47
2023-03-06T00:08:35.449Z,66.98
2023-03-06T00:11:01.851Z,67.26
2023-03-06T00:13:28.272Z,67.40
2023-03-06T00:15:54.733Z,67.07
2023-03-06T00:18:21.162Z,67.20
2023-03-06T00:20:47.566Z,67.54
2023-03-06T00:23:13.988Z,67.54
2023-03-06T00:25:40.381Z,67.28
2023-03-06T00:28:06.798Z,67.43
2023-03-06T00:30:33.359Z,67.39
2023-03-06T00:32:59.773Z,67.21
2023-03-06T00:35:26.227Z,67.67
2023-03-06T00:37:52.678Z,67.75
2023-03-06T00:40:19.069Z,67.77
2023-03-06T00:42:45.485Z,67.91
2023-03-06T00:45:11.919Z,67.54
2023-03-06T00:47:38.506Z,67.68
2023-03-06T00:50:04.933Z,67.99
2023-03-06T00:52:31.355Z,67.86
2023-03-06T00:54:57.758Z,68.02
2023-03-06T00:57:24.165Z,68.56
2023-03-06T00:59:50.563Z,68.36
2023-03-06T01:02:16.992Z,68.58
2023-03-06T01:04:43.421Z,69.01
2023-03-06T01:07:09.813Z,68.64
2023-03-06T01:09:36.207Z,68.44
2023-03-06T01:12:02.609Z,68.74
2023-03-06T01:14:29.021Z,68.61
2023-03-06T01:16:55.450Z,68.13
2023-03-06T01:19:21.867Z,68.28
2023-03-06T01:21:48.258Z,68.42
2023-03-06T01:24:14.667Z,68.30
2023-03-06T01:26:41.059Z,69.03
2023-03-06T01:29:07.460Z,69.00
2023-03-06T01:31:33.938Z,68.50
2023-03-06T01:34:00.364Z,68.64
2023-03-06T01:36:26.776Z,68.25
2023-03-06T01:38:53.174Z,68.49
2023-03-06T01:41:19.612Z,67.64
2023-03-06T01:43:46.028Z,67.73
2023-03-06T01:46:12.454Z,68.64
2023-03-06T01:48:38.919Z,69.00
2023-03-06T01:51:05.361Z,69.06
2023-03-06T01:53:31.825Z,68.53
2023-03-06T01:55:58.228Z,68.27
2023-03-06T01:58:24.655Z,68.33
2023-03-06T02:00:51.127Z,67.97
2023-03-06T02:03:17.552Z,68.14
2023-03-06T02:05:43.956Z,68.87
2023-03-06T02:08:10.354Z,68.53
2023-03-06T02:10:36.750Z,69.10
2023-03-06T02:13:03.146Z,68.98
2023-03-06T02:15:29.552Z,68.62
2023-03-06T02:17:55.978Z,68.84
2023-03-06T02:20:22.383Z,68.66
2023-03-06T02:22:48.793Z,69.19
2023-03-06T02:25:15.216Z,68.25
2023-03-06T02:27:41.638Z,68.88
2023-03-06T02:30:08.057Z,69.13
2023-03-06T02:32:34.573Z,68.67
2023-03-06T02:35:01.054Z,68.72
2023-03-06T02:37:27.554Z,69.20
2023-03-06T02:39:53.986Z,69.50
2023-03-06T02:42:20.386Z,69.47
2023-03-06T02:44:46.803Z,68.61
2023-03-06T02:47:13.187Z,69.21
2023-03-06T02:49:39.609Z,69.28
2023-03-06T02:52:06.079Z,69.01
2023-03-06T02:54:32.497Z,69.35
2023-03-06T02:56:58.917Z,69.53
2023-03-06T02:59:25.312Z,69.22
2023-03-06T03:01:51.763Z,68.87
2023-03-06T03:04:18.297Z,69.42
2023-03-06T03:06:44.717Z,69.18
2023-03-06T03:09:11.122Z,68.94
2023-03-06T03:11:37.507Z,68.90
2023-03-06T03:14:03.921Z,68.57
2023-03-06T03:16:30.322Z,68.58
2023-03-06T03:18:56.748Z,69.14
2023-03-06T03:21:23.130Z,69.01
2023-03-06T03:23:49.559Z,68.63
2023-03-06T03:26:15.967Z,68.43
2023-03-06T03:28:42.376Z,68.73
2023-03-06T03:31:08.814Z,68.42
2023-03-06T03:33:35.230Z,69.10
2023-03-06T03:36:01.633Z,69.19
2023-03-06T03:38:28.022Z,68.61
2023-03-06T03:40:54.427Z,68.87
2023-03-06T03:43:20.826Z,68.79
2023-03-06T03:45:47.218Z,68.94
2023-03-06T03:48:13.651Z,69.00
2023-03-06T03:50:40.073Z,68.95
2023-03-06T03:53:06.493Z,68.94
2023-03-06T03:55:32.880Z,69.29
2023-03-06T03:57:59.311Z,69.34
2023-03-06T04:00:25.730Z,69.72
2023-03-06T04:02:52.190Z,69.53
2023-03-06T04:05:18.587Z,68.74
2023-03-06T04:07:44.994Z,68.65
2023-03-06T04:10:11.400Z,69.17
2023-03-06T04:12:37.806Z,67.99
2023-03-06T04:15:04.218Z,68.44
2023-03-06T04:17:30.665Z,68.90
2023-03-06T04:19:57.113Z,68.99
2023-03-06T04:22:23.512Z,68.78
2023-03-06T04:24:50.004Z,69.28
2023-03-06T04:27:16.427Z,68.69
2023-03-06T04:29:42.815Z,69.32
2023-03-06T04:32:09.227Z,69.40
2023-03-06T04:34:35.693Z,69.34
2023-03-06T04:37:02.104Z,69.06
2023-03-06T04:39:28.531Z,69.22
2023-03-06T04:41:54.954Z,69.24
2023-03-06T04:44:21.467Z,69.06
2023-03-06T04:46:47.962Z,68.84
2023-03-06T04:49:14.376Z,69.13
2023-03-06T04:51:40.803Z,68.93
2023-03-06T04:54:07.234Z,68.78
2023-03-06T04:56:33.643Z,69.57
2023-03-06T04:59:00.087Z,69.73
2023-03-06T05:01:26.501Z,69.25
2023-03-06T05:03:52.888Z,69.02
2023-03-06T05:06:19.309Z,69.34
2023-03-06T05:08:45.777Z,69.97
2023-03-06T05:11:12.195Z,69.67
2023-03-06T05:13:38.646Z,69.98
2023-03-06T05:16:05.197Z,69.82
2023-03-06T05:18:31.626Z,70.23
2023-03-06T05:20:58.041Z,69.95
2023-03-06T05:23:24.459Z,70.08
2023-03-06T05:25:50.892Z,70.07
2023-03-06T05:28:17.294Z,69.89
2023-03-06T05:30:43.682Z,69.65
2023-03-06T05:33:10.124Z,69.70
2023-03-06T05:35:36.537Z,70.11
2023-03-06T05:38:02.951Z,70.70
2023-03-06T05:40:29.364Z,70.57
2023-03-06T05:42:55.777Z,70.62
2023-03-06T05:45:22.169Z,70.16
2023-03-06T05:47:48.585Z,70.29
2023-03-06T05:50:15.012Z,70.49
2023-03-06T05:52:41.413Z,70.40
2023-03-06T05:55:07.808Z,71.36
2023-03-06T05:57:34.209Z,72.31
2023-03-06T06:00:00.647Z,72.99
2023-03-06T06:02:27.129Z,73.12
2023-03-06T06:04:53.570Z,73.92
2023-03-06T06:07:19.986Z,74.35
2023-03-06T06:09:46.373Z,74.48
2023-03-06T06:12:12.791Z,74.16
2023-03-06T06:14:39.216Z,74.03
2023-03-06T06:17:05.720Z,73.92
2023-03-06T06:19:32.153Z,73.64
2023-03-06T06:21:58.562Z,73.56
2023-03-06T06:24:24.988Z,73.84
2023-03-06T06:26:51.376Z,73.79
2023-03-06T06:29:17.783Z,73.57
2023-03-06T06:31:44.189Z,73.51
2023-03-06T06:34:10.607Z,73.06
2023-03-06T06:36:37.008Z,73.10
2023-03-06T06:39:03.448Z,71.94
2023-03-06T06:41:50.627Z,69.64
2023-03-06T06:44:16.481Z,68.42
2023-03-06T06:49:29.308Z,69.01
2023-03-06T06:51:55.908Z,65.67
2023-03-06T06:54:22.338Z,67.70
2023-03-06T06:56:48.789Z,69.11
2023-03-06T06:59:17.035Z,69.40
2023-03-06T07:01:43.995Z,69.32
2023-03-06T07:04:10.536Z,69.53
2023-03-06T07:06:36.977Z,69.44
2023-03-06T07:09:03.514Z,69.54
2023-03-06T07:11:29.908Z,69.59
2023-03-06T07:13:56.355Z,69.28
2023-03-06T07:16:22.834Z,69.38
2023-03-06T07:18:49.384Z,69.47
2023-03-06T07:21:15.785Z,69.09
2023-03-06T07:23:42.200Z,69.12
2023-03-06T07:26:08.617Z,68.92
2023-03-06T07:28:49.834Z,68.97
2023-03-06T07:31:18.240Z,68.61
2023-03-06T07:33:44.661Z,68.28
2023-03-06T07:36:12.833Z,67.70
2023-03-06T07:38:40.235Z,66.84
2023-03-06T07:41:06.658Z,67.39
2023-03-06T07:43:33.066Z,66.77
2023-03-06T07:46:00.504Z,66.01
2023-03-06T07:48:28.126Z,67.13
2023-03-06T07:50:54.680Z,67.17
2023-03-06T07:53:21.175Z,67.32
2023-03-06T07:55:47.944Z,68.17
2023-03-06T07:58:16.546Z,68.56
2023-03-06T08:00:43.142Z,68.56
2023-03-06T08:03:10.749Z,67.46
2023-03-06T08:05:37.175Z,67.06
2023-03-06T08:08:03.572Z,67.18
2023-03-06T08:10:29.974Z,67.68
2023-03-06T08:12:56.521Z,66.24
2023-03-06T08:15:23.006Z,66.00
2023-03-06T08:17:51.247Z,67.37
2023-03-06T08:20:18.828Z,66.87
2023-03-06T08:22:46.428Z,67.18
2023-03-06T08:25:13.020Z,66.02
2023-03-06T08:27:40.638Z,66.21
2023-03-06T08:30:08.242Z,65.06
2023-03-06T08:32:37.496Z,66.26
2023-03-06T08:35:04.435Z,65.04
2023-03-06T08:37:33.108Z,64.47
2023-03-06T08:40:00.633Z,64.42
2023-03-06T08:42:29.212Z,64.43
2023-03-06T08:44:56.794Z,63.71
2023-03-06T08:47:24.406Z,63.57
2023-03-06T08:49:52.003Z,62.98
2023-03-06T08:52:20.641Z,63.34
2023-03-06T08:54:48.227Z,63.83
2023-03-06T08:57:14.839Z,63.16
2023-03-06T08:59:42.425Z,63.05
2023-03-06T09:02:10.024Z,63.69
2023-03-06T09:04:37.610Z,63.71
2023-03-06T09:07:05.194Z,62.54
2023-03-06T09:09:31.761Z,61.75
2023-03-06T09:12:00.355Z,60.61
2023-03-06T09:14:26.786Z,60.52
2023-03-06T09:16:53.222Z,59.17
2023-03-06T09:19:19.678Z,59.72
2023-03-06T09:21:46.119Z,57.05
2023-03-06T09:24:13.306Z,57.08
2023-03-06T09:26:45.973Z,57.84
2023-03-06T09:29:13.534Z,53.53
2023-03-06T09:31:39.953Z,59.75
2023-03-06T09:34:06.538Z,58.72
2023-03-06T09:36:40.224Z,59.31
2023-03-06T09:39:15.931Z,59.32
2023-03-06T09:41:43.513Z,59.11
2023-03-06T09:44:10.090Z,48.87
2023-03-06T09:46:36.699Z,52.40
2023-03-06T09:49:05.404Z,55.98
2023-03-06T09:51:32.951Z,55.23
2023-03-06T09:53:59.770Z,56.15
2023-03-06T09:56:26.241Z,56.51
2023-03-06T09:58:52.690Z,55.50
2023-03-06T10:01:19.202Z,57.70
2023-03-06T10:03:45.637Z,56.67
2023-03-06T10:06:12.105Z,54.54
2023-03-06T10:08:39.003Z,54.46
2023-03-06T10:11:05.669Z,60.78
2023-03-06T10:13:33.170Z,58.77
2023-03-06T10:15:59.817Z,57.61
2023-03-06T10:18:26.695Z,48.27
2023-03-06T10:20:53.940Z,46.09
2023-03-06T10:23:20.361Z,45.76
2023-03-06T10:25:46.760Z,49.02
2023-03-06T10:28:13.187Z,49.82
2023-03-06T10:30:39.606Z,50.26
2023-03-06T10:33:06.126Z,44.78
2023-03-06T10:35:33.529Z,46.35
2023-03-06T10:38:01.050Z,49.06
2023-03-06T10:40:28.642Z,39.83
2023-03-06T10:43:10.587Z,41.25
2023-03-06T10:45:48.663Z,41.17
2023-03-06T10:48:16.564Z,41.32
2023-03-06T10:50:44.118Z,47.62
2023-03-06T10:53:11.705Z,50.43
2023-03-06T10:55:38.307Z,51.11
2023-03-06T10:58:05.880Z,44.52
2023-03-06T11:00:32.485Z,46.44
2023-03-06T11:02:59.361Z,46.94
2023-03-06T11:05:25.809Z,39.90
2023-03-06T11:07:52.256Z,40.32
2023-03-06T11:10:19.962Z,41.29
2023-03-06T11:12:46.611Z,41.40
2023-03-06T11:15:14.062Z,39.67
2023-03-06T11:17:41.628Z,39.42
2023-03-06T11:20:09.259Z,40.60
2023-03-06T11:22:36.829Z,39.63
2023-03-06T11:25:03.409Z,39.39
2023-03-06T11:27:29.982Z,40.50
2023-03-06T11:29:56.369Z,39.97
2023-03-06T11:32:22.828Z,39.47
2023-03-06T11:34:50.696Z,39.41
2023-03-06T11:37:20.389Z,39.66
2023-03-06T11:39:47.981Z,38.87
2023-03-06T11:42:14.543Z,38.95
2023-03-06T11:44:41.180Z,39.91
2023-03-06T11:47:07.614Z,42.94
2023-03-06T11:49:34.096Z,39.08
2023-03-06T11:52:00.891Z,38.34
2023-03-06T11:54:29.480Z,39.51
2023-03-06T11:56:56.355Z,39.38
2023-03-06T11:59:22.756Z,40.15
2023-03-06T12:01:49.255Z,39.98
2023-03-06T12:04:15.730Z,38.55
2023-03-06T12:06:42.169Z,38.03
2023-03-06T12:09:08.570Z,38.64
2023-03-06T12:11:35.077Z,38.90
2023-03-06T12:14:03.942Z,38.68
2023-03-06T12:16:31.875Z,38.24
2023-03-06T12:18:59.391Z,38.93
2023-03-06T12:21:25.837Z,39.21
2023-03-06T12:23:52.689Z,39.42
2023-03-06T12:26:19.152Z,38.80
2023-03-06T12:28:46.524Z,39.39
2023-03-06T12:31:12.961Z,38.49
2023-03-06T12:33:39.407Z,40.19
2023-03-06T12:36:06.010Z,39.75
2023-03-06T12:38:32.502Z,39.00
2023-03-06T12:41:00.949Z,38.09
2023-03-06T12:43:27.557Z,39.60
2023-03-06T12:45:54.048Z,39.00
2023-03-06T12:48:20.738Z,37.31
2023-03-06T12:50:49.429Z,36.44
2023-03-06T12:53:15.918Z,38.17
2023-03-06T12:55:42.332Z,38.23
2023-03-06T12:58:08.750Z,39.03
2023-03-06T13:00:35.171Z,38.01
2023-03-06T13:03:01.604Z,38.13
2023-03-06T13:05:28.064Z,37.44
2023-03-06T13:07:55.518Z,38.04
2023-03-06T13:10:23.118Z,37.79
2023-03-06T13:12:49.610Z,38.76
2023-03-06T13:15:16.003Z,39.36
2023-03-06T13:17:42.665Z,39.02
2023-03-06T13:20:09.044Z,39.10
2023-03-06T13:22:36.124Z,37.44
2023-03-06T13:25:08.144Z,39.42
2023-03-06T13:27:34.811Z,38.66
2023-03-06T13:30:01.310Z,38.95
2023-03-06T13:32:27.847Z,38.44
2023-03-06T13:34:54.291Z,38.52
2023-03-06T13:37:20.695Z,38.98
2023-03-06T13:39:47.131Z,39.08
2023-03-06T13:42:13.857Z,39.22
2023-03-06T13:44:40.500Z,40.06
2023-03-06T13:47:08.155Z,39.76
2023-03-06T13:49:35.742Z,39.97
2023-03-06T13:52:02.338Z,40.60
2023-03-06T13:54:29.961Z,40.93
2023-03-06T13:56:56.586Z,40.48
2023-03-06T13:59:24.168Z,40.26
2023-03-06T14:01:52.598Z,40.60
2023-03-06T14:04:19.039Z,40.63
2023-03-06T14:06:46.034Z,40.98
2023-03-06T14:09:12.445Z,40.12
2023-03-06T14:11:38.898Z,39.98
2023-03-06T14:14:05.308Z,40.71
2023-03-06T14:16:48.642Z,40.65
2023-03-06T14:19:16.068Z,40.86
2023-03-06T14:21:42.643Z,41.01
2023-03-06T14:24:09.053Z,41.36
2023-03-06T14:26:35.846Z,40.36
2023-03-06T14:29:03.509Z,40.21
2023-03-06T14:31:30.135Z,40.26
2023-03-06T14:33:56.553Z,40.62
2023-03-06T14:36:23.127Z,40.53
2023-03-06T14:38:49.561Z,39.95
2023-03-06T14:41:16.000Z,40.92
2023-03-06T14:43:43.047Z,40.64
2023-03-06T14:46:11.646Z,40.51
2023-03-06T14:48:38.564Z,41.21
2023-03-06T14:51:05.019Z,41.52
2023-03-06T14:53:31.438Z,41.51
2023-03-06T14:55:57.862Z,42.57
2023-03-06T14:58:25.587Z,42.63
2023-03-06T15:00:52.292Z,43.20
2023-03-06T15:03:18.752Z,43.04
2023-03-06T15:05:45.328Z,43.48
2023-03-06T15:08:11.941Z,43.13
2023-03-06T15:10:38.359Z,43.94
2023-03-06T15:13:04.786Z,43.39
2023-03-06T15:15:31.705Z,44.26
2023-03-06T15:17:58.094Z,44.25
2023-03-06T15:20:24.568Z,44.58
2023-03-06T15:22:51.029Z,44.90
2023-03-06T15:25:17.563Z,44.73
2023-03-06T15:27:45.660Z,45.25
2023-03-06T15:30:13.256Z,44.68
2023-03-06T15:32:39.912Z,45.49
2023-03-06T15:35:06.581Z,45.61
2023-03-06T15:37:33.028Z,45.85
2023-03-06T15:40:00.747Z,45.94
2023-03-06T15:42:27.180Z,45.96
2023-03-06T15:44:53.911Z,45.41
2023-03-06T15:47:20.509Z,45.61
2023-03-06T15:49:46.926Z,45.37
2023-03-06T15:52:13.369Z,46.24
2023-03-06T15:54:39.794Z,46.52
2023-03-06T15:57:07.885Z,46.94
2023-03-06T15:59:36.464Z,46.63
2023-03-06T16:02:02.933Z,45.89
2023-03-06T16:04:29.501Z,46.14
2023-03-06T16:06:55.974Z,46.68
2023-03-06T16:09:22.822Z,47.68
2023-03-06T16:11:49.244Z,47.54
2023-03-06T16:14:15.651Z,47.96
2023-03-06T16:16:42.104Z,47.02
2023-03-06T16:19:13.949Z,48.38
2023-03-06T16:21:43.300Z,48.40
2023-03-06T16:24:09.710Z,47.98
2023-03-06T16:26:36.188Z,48.63
2023-03-06T16:29:02.612Z,48.20
2023-03-06T16:31:29.063Z,48.95
2023-03-06T16:33:55.562Z,47.98
2023-03-06T16:36:22.359Z,47.50
2023-03-06T16:38:48.757Z,48.48
2023-03-06T16:41:15.163Z,49.47
2023-03-06T16:43:41.566Z,49.33
2023-03-06T16:46:08.062Z,48.13
2023-03-06T16:48:34.490Z,47.70
2023-03-06T16:51:00.928Z,47.40
2023-03-06T16:53:27.348Z,48.29
2023-03-06T16:55:53.792Z,47.61
2023-03-06T16:58:20.312Z,47.34
2023-03-06T17:00:46.882Z,48.16
2023-03-06T17:03:13.320Z,47.98
2023-03-06T17:05:39.759Z,48.79
2023-03-06T17:08:06.241Z,47.02
2023-03-06T17:10:32.689Z,47.77
2023-03-06T17:12:59.150Z,47.27
2023-03-06T17:15:25.558Z,47.98
2023-03-06T17:17:51.939Z,48.32
2023-03-06T17:20:18.325Z,49.33
2023-03-06T17:22:44.755Z,48.91
2023-03-06T17:25:11.191Z,49.22
2023-03-06T17:27:37.588Z,49.90
2023-03-06T17:30:04.047Z,50.71
2023-03-06T17:32:30.523Z,50.01
2023-03-06T17:34:57.022Z,50.44
2023-03-06T17:37:23.462Z,50.55
2023-03-06T17:39:49.921Z,50.52
2023-03-06T17:42:16.365Z,50.26
2023-03-06T17:44:42.767Z,50.51
2023-03-06T17:47:09.160Z,50.52
2023-03-06T17:49:35.567Z,50.99
2023-03-06T17:52:01.988Z,51.26
2023-03-06T17:54:28.956Z,51.71
2023-03-06T17:56:55.432Z,52.31
2023-03-06T17:59:21.834Z,51.22
2023-03-06T18:01:48.304Z,51.46
2023-03-06T18:04:14.729Z,51.19
2023-03-06T18:06:41.161Z,51.30
2023-03-06T18:09:07.558Z,51.22
2023-03-06T18:11:33.995Z,50.83
2023-03-06T18:14:00.403Z,51.26
2023-03-06T18:16:26.913Z,52.25
2023-03-06T18:18:53.352Z,51.88
2023-03-06T18:21:19.774Z,52.12
2023-03-06T18:23:46.409Z,52.98
2023-03-06T18:26:12.831Z,52.82
2023-03-06T18:28:39.263Z,52.96
2023-03-06T18:31:05.693Z,52.77
2023-03-06T18:33:32.106Z,53.29
2023-03-06T18:35:58.543Z,53.74
2023-03-06T18:38:24.994Z,52.92
2023-03-06T18:40:51.563Z,51.47
2023-03-06T18:43:18.176Z,52.29
2023-03-06T18:45:44.623Z,52.39
2023-03-06T18:48:11.081Z,51.69
2023-03-06T18:50:37.493Z,52.34
2023-03-06T18:53:03.886Z,53.68
2023-03-06T18:55:30.319Z,52.64
2023-03-06T18:57:56.743Z,53.03
2023-03-06T19:00:23.212Z,52.44
2023-03-06T19:02:49.641Z,52.24
2023-03-06T19:05:16.049Z,52.73
2023-03-06T19:07:42.475Z,53.63
2023-03-06T19:10:08.874Z,53.86
2023-03-06T19:12:35.274Z,53.47
2023-03-06T19:15:01.671Z,52.95
2023-03-06T19:17:28.083Z,53.40
2023-03-06T19:19:54.518Z,53.82
2023-03-06T19:22:20.962Z,53.35
2023-03-06T19:24:47.390Z,53.67
2023-03-06T19:27:13.811Z,52.41
2023-03-06T19:29:40.248Z,52.61
2023-03-06T19:32:06.788Z,53.74
2023-03-06T19:34:33.263Z,53.74
2023-03-06T19:36:59.682Z,53.36
2023-03-06T19:39:26.074Z,52.57
2023-03-06T19:41:52.468Z,53.60
2023-03-06T19:44:18.890Z,53.10
2023-03-06T19:46:45.318Z,53.55
2023-03-06T19:49:11.812Z,53.68
2023-03-06T19:51:38.354Z,54.61
2023-03-06T19:54:04.775Z,54.11
2023-03-06T19:56:31.159Z,54.32
2023-03-06T19:58:57.634Z,53.97
2023-03-06T20:01:24.093Z,54.55
2023-03-06T20:03:50.578Z,54.40
2023-03-06T20:06:17.054Z,53.02
2023-03-06T20:08:43.515Z,53.39
2023-03-06T20:11:09.894Z,54.24
2023-03-06T20:13:36.298Z,54.45
2023-03-06T20:16:03.080Z,53.44
2023-03-06T20:18:29.543Z,53.27
2023-03-06T20:20:55.945Z,53.69
2023-03-06T20:23:22.341Z,53.68
2023-03-06T20:25:48.747Z,53.77
2023-03-06T20:28:15.161Z,53.48
2023-03-06T20:30:41.574Z,54.37
2023-03-06T20:33:08.004Z,54.57
2023-03-06T20:35:34.438Z,53.75
2023-03-06T20:38:00.882Z,53.68
2023-03-06T20:40:27.330Z,54.24
2023-03-06T20:42:53.753Z,54.72
2023-03-06T20:45:20.166Z,53.63
2023-03-06T20:47:46.610Z,53.56
2023-03-06T20:50:13.089Z,53.02
2023-03-06T20:52:39.602Z,54.12
2023-03-06T20:55:06.000Z,52.90
2023-03-06T20:57:32.438Z,53.27
2023-03-06T20:59:59.129Z,53.61
2023-03-06T21:02:26.706Z,54.06
2023-03-06T21:04:53.195Z,53.49
2023-03-06T21:07:19.627Z,53.53
2023-03-06T21:09:46.038Z,53.78
2023-03-06T21:12:12.455Z,53.11
2023-03-06T21:14:38.876Z,52.66
2023-03-06T21:17:05.344Z,53.23
2023-03-06T21:19:31.786Z,52.44
2023-03-06T21:21:58.202Z,53.11
2023-03-06T21:24:24.601Z,52.64
2023-03-06T21:26:51.020Z,52.00
2023-03-06T21:29:17.442Z,52.21
2023-03-06T21:31:43.890Z,52.47
2023-03-06T21:34:10.352Z,52.72
2023-03-06T21:36:36.753Z,52.96
2023-03-06T21:39:03.314Z,53.15
2023-03-06T21:41:29.733Z,53.08
2023-03-06T21:43:56.152Z,53.13
2023-03-06T21:46:22.637Z,52.64
2023-03-06T21:48:49.070Z,51.68
2023-03-06T21:51:15.467Z,51.51
2023-03-06T21:53:41.868Z,51.81
2023-03-06T21:56:08.301Z,52.02
2023-03-06T21:58:35.465Z,52.75
2023-03-06T22:01:01.949Z,53.24
2023-03-06T22:03:28.400Z,54.26
2023-03-06T22:05:54.825Z,54.27
2023-03-06T22:08:21.296Z,53.74
2023-03-06T22:10:48.533Z,53.37
2023-03-06T22:13:15.059Z,53.67
2023-03-06T22:15:41.454Z,53.83
2023-03-06T22:18:07.861Z,53.96
2023-03-06T22:20:34.291Z,53.75
2023-03-06T22:23:00.761Z,53.59
2023-03-06T22:25:27.218Z,54.05
2023-03-06T22:27:53.640Z,54.09
2023-03-06T22:30:20.065Z,53.57
2023-03-06T22:32:46.637Z,53.70
2023-03-06T22:35:13.057Z,53.87
2023-03-06T22:37:39.459Z,53.18
2023-03-06T22:40:05.913Z,53.76
2023-03-06T22:42:32.305Z,53.69
2023-03-06T22:44:58.732Z,53.83
2023-03-06T22:47:25.165Z,54.08
2023-03-06T22:49:51.577Z,53.77
2023-03-06T22:52:18.006Z,54.14
2023-03-06T22:54:44.571Z,53.95
2023-03-06T22:57:10.977Z,54.01
2023-03-06T22:59:37.391Z,54.13
2023-03-06T23:02:04.284Z,53.98
2023-03-06T23:04:30.717Z,54.57
2023-03-06T23:06:57.144Z,54.26
2023-03-06T23:09:23.578Z,54.41
2023-03-06T23:11:50.642Z,54.37
2023-03-06T23:14:17.252Z,53.17
2023-03-06T23:16:43.757Z,52.83
2023-03-06T23:19:10.186Z,52.83
2023-03-06T23:21:36.614Z,51.48
2023-03-06T23:24:03.020Z,52.30
2023-03-06T23:26:29.515Z,52.37
2023-03-06T23:28:56.004Z,52.63
2023-03-06T23:31:22.705Z,53.06
2023-03-06T23:33:49.144Z,53.94
2023-03-06T23:36:15.550Z,53.42
2023-03-06T23:38:42.057Z,51.72
2023-03-06T23:41:08.461Z,52.05
2023-03-06T23:43:34.963Z,51.36
2023-03-06T23:46:01.456Z,52.23
2023-03-06T23:48:27.891Z,52.88
2023-03-06T23:50:54.311Z,53.26
2023-03-06T23:53:20.762Z,53.18
2023-03-06T23:55:47.185Z,52.64
2023-03-06T23:58:13.654Z,52.73
